Bergara, Spain
Current Conditions -  °F | °C
As of 11:00 PM on Monday 22 Dec 2014 (Local Time) from LEVT Reporting Station
Scattered Clouds Scattered Clouds  
Wind Chill: 31°   Ceiling: Unl
Heat Index: 37°   Visibility: 5mi
Dew Point: 36°   Wind: 9mph
Humidity: 93%   Direction: 210°SSW
Pressure: 30.42"   Gusts: NA
Location:  43.12°N, 2.42°W
Report Text: LEVT 222200Z 21008KT 8000 SCT003 03/02 Q1030
Loading
Personal Weather Stations






























Interactive Weather Map New forecast layout! Learn more

10-Day Weather Forecast

Advertisements
Track Severe Weather on mobile